createdAt,value
2018-12-03T00:00:42.250Z,13.13
2018-12-03T00:01:42.231Z,13.06
2018-12-03T00:02:42.208Z,13.17
2018-12-03T00:03:42.190Z,13.19
2018-12-03T00:04:42.168Z,13.12
2018-12-03T00:05:42.150Z,13.21
2018-12-03T00:06:42.128Z,13.17
2018-12-03T00:07:42.112Z,13.16
2018-12-03T00:08:42.089Z,13.16
2018-12-03T00:09:42.070Z,13.16
2018-12-03T00:10:42.049Z,13.16
2018-12-03T00:11:42.030Z,13.19
2018-12-03T00:12:42.009Z,13.16
2018-12-03T00:13:41.990Z,13.11
2018-12-03T00:14:41.970Z,13.20
2018-12-03T00:15:41.950Z,13.19
2018-12-03T00:16:41.930Z,13.27
2018-12-03T00:17:41.909Z,13.16
2018-12-03T00:18:41.889Z,13.19
2018-12-03T00:19:41.870Z,13.16
2018-12-03T00:20:41.850Z,13.17
2018-12-03T00:21:41.834Z,13.13
2018-12-03T00:22:41.811Z,13.23
2018-12-03T00:23:41.791Z,13.20
2018-12-03T00:24:41.773Z,13.19
2018-12-03T00:25:41.752Z,13.21
2018-12-03T00:26:41.733Z,13.20
2018-12-03T00:27:41.715Z,13.19
2018-12-03T00:28:41.691Z,13.24
2018-12-03T00:29:41.673Z,13.20
2018-12-03T00:30:41.656Z,13.21
2018-12-03T00:31:41.633Z,13.21
2018-12-03T00:32:41.612Z,13.21
2018-12-03T00:33:41.592Z,13.23
2018-12-03T00:34:41.573Z,13.23
2018-12-03T00:35:41.554Z,13.23
2018-12-03T00:36:41.532Z,13.33
2018-12-03T00:37:41.516Z,13.21
2018-12-03T00:38:41.495Z,13.19
2018-12-03T00:39:41.478Z,13.23
2018-12-03T00:40:41.454Z,13.27
2018-12-03T00:41:41.437Z,13.30
2018-12-03T00:42:41.414Z,13.26
2018-12-03T00:43:41.395Z,13.28
2018-12-03T00:44:41.378Z,13.20
2018-12-03T00:45:41.357Z,13.33
2018-12-03T00:46:41.336Z,13.33
2018-12-03T00:47:41.317Z,13.31
2018-12-03T00:48:41.299Z,13.28
2018-12-03T00:49:41.275Z,13.33
2018-12-03T00:50:41.256Z,13.33
2018-12-03T00:51:41.238Z,13.24
2018-12-03T00:52:41.218Z,13.30
2018-12-03T00:53:41.200Z,13.36
2018-12-03T00:54:41.180Z,13.39
2018-12-03T00:55:41.158Z,13.36
2018-12-03T00:56:41.137Z,13.37
2018-12-03T00:57:41.117Z,13.37
2018-12-03T00:58:41.097Z,13.46
2018-12-03T00:59:41.079Z,13.36
2018-12-03T01:00:41.058Z,13.39
2018-12-03T01:01:41.040Z,13.40
2018-12-03T01:02:41.022Z,13.36
2018-12-03T01:03:40.999Z,13.40
2018-12-03T01:04:40.977Z,13.39
2018-12-03T01:05:40.957Z,13.37
2018-12-03T01:06:40.939Z,13.40
2018-12-03T01:07:40.919Z,13.43
2018-12-03T01:08:40.900Z,13.43
2018-12-03T01:09:40.878Z,13.36
2018-12-03T01:10:40.860Z,13.37
2018-12-03T01:11:40.842Z,13.37
2018-12-03T01:12:40.818Z,13.37
2018-12-03T01:13:40.799Z,13.33
2018-12-03T01:14:40.780Z,13.33
2018-12-03T01:15:40.759Z,13.36
2018-12-03T01:16:40.740Z,13.33
2018-12-03T01:17:40.720Z,13.33
2018-12-03T01:18:40.703Z,13.39
2018-12-03T01:19:40.681Z,13.39
2018-12-03T01:20:40.661Z,13.31
2018-12-03T01:21:40.640Z,13.37
2018-12-03T01:22:40.622Z,13.31
2018-12-03T01:23:40.601Z,13.36
2018-12-03T01:24:40.584Z,13.33
2018-12-03T01:25:40.562Z,13.33
2018-12-03T01:26:40.540Z,13.33
2018-12-03T01:27:40.521Z,13.39
2018-12-03T01:28:40.504Z,13.36
2018-12-03T01:29:40.483Z,13.30
2018-12-03T01:30:40.463Z,13.33
2018-12-03T01:31:40.443Z,13.27
2018-12-03T01:32:40.426Z,13.31
2018-12-03T01:33:40.404Z,13.31
2018-12-03T01:34:40.385Z,13.30
2018-12-03T01:35:40.362Z,13.26
2018-12-03T01:36:40.343Z,13.31
2018-12-03T01:37:40.321Z,13.26
2018-12-03T01:38:40.305Z,13.28
2018-12-03T01:39:40.283Z,13.33
2018-12-03T01:40:40.262Z,13.27
2018-12-03T01:41:40.243Z,13.30
2018-12-03T01:42:40.224Z,13.37
2018-12-03T01:43:40.205Z,13.31
2018-12-03T01:44:40.183Z,13.40
2018-12-03T01:45:40.167Z,13.27
2018-12-03T01:46:40.147Z,13.36
2018-12-03T01:47:40.128Z,13.37
2018-12-03T01:48:40.103Z,13.31
2018-12-03T01:49:40.082Z,13.36
2018-12-03T01:50:40.066Z,13.33
2018-12-03T01:51:40.044Z,13.39
2018-12-03T01:52:40.023Z,13.33
2018-12-03T01:53:40.004Z,13.37
2018-12-03T01:54:39.984Z,13.40
2018-12-03T01:55:39.967Z,13.45
2018-12-03T01:56:39.944Z,13.40
2018-12-03T01:57:39.924Z,13.36
2018-12-03T01:58:39.903Z,13.37
2018-12-03T01:59:39.886Z,13.42
2018-12-03T02:00:39.864Z,13.43
2018-12-03T02:01:39.901Z,13.42
2018-12-03T02:02:39.825Z,13.40
2018-12-03T02:03:39.806Z,13.43
2018-12-03T02:04:39.785Z,13.43
2018-12-03T02:05:39.825Z,13.45
2018-12-03T02:06:39.745Z,13.46
2018-12-03T02:07:39.725Z,13.42
2018-12-03T02:08:39.705Z,13.43
2018-12-03T02:09:39.684Z,13.50
2018-12-03T02:10:39.664Z,13.43
2018-12-03T02:11:39.645Z,13.45
2018-12-03T02:12:39.625Z,13.47
2018-12-03T02:13:39.605Z,13.50
2018-12-03T02:14:39.589Z,13.49
2018-12-03T02:15:39.565Z,13.55
2018-12-03T02:16:39.545Z,13.50
2018-12-03T02:17:39.528Z,13.50
2018-12-03T02:18:39.508Z,13.49
2018-12-03T02:19:39.485Z,13.43
2018-12-03T02:20:39.465Z,13.49
2018-12-03T02:21:39.445Z,13.49
2018-12-03T02:22:39.428Z,13.47
2018-12-03T02:23:39.405Z,13.47
2018-12-03T02:24:39.385Z,13.43
2018-12-03T02:25:39.368Z,13.42
2018-12-03T02:26:39.346Z,13.43
2018-12-03T02:27:39.326Z,13.50
2018-12-03T02:28:39.306Z,13.50
2018-12-03T02:29:39.289Z,13.49
2018-12-03T02:30:39.267Z,13.45
2018-12-03T02:31:39.250Z,13.42
2018-12-03T02:32:39.226Z,13.42
2018-12-03T02:33:39.208Z,13.43
2018-12-03T02:34:39.186Z,13.52
2018-12-03T02:35:39.170Z,13.55
2018-12-03T02:36:39.150Z,13.60
2018-12-03T02:37:39.127Z,13.60
2018-12-03T02:38:39.106Z,13.60
2018-12-03T02:39:39.087Z,13.62
2018-12-03T02:40:39.069Z,13.57
2018-12-03T02:41:39.056Z,13.60
2018-12-03T02:42:39.026Z,13.50
2018-12-03T02:43:39.007Z,13.58
2018-12-03T02:44:38.988Z,13.55
2018-12-03T02:45:38.971Z,13.54
2018-12-03T02:46:38.947Z,13.55
2018-12-03T02:47:38.929Z,13.50
2018-12-03T02:48:38.910Z,13.45
2018-12-03T02:49:38.887Z,13.43
2018-12-03T02:50:38.868Z,13.47
2018-12-03T02:51:38.852Z,13.49
2018-12-03T02:52:38.828Z,13.43
2018-12-03T02:53:38.806Z,13.45
2018-12-03T02:54:38.786Z,13.46
2018-12-03T02:55:38.768Z,13.40
2018-12-03T02:56:38.747Z,13.40
2018-12-03T02:57:38.728Z,13.42
2018-12-03T02:58:38.708Z,13.43
2018-12-03T02:59:38.692Z,13.33
2018-12-03T03:00:38.667Z,13.39
2018-12-03T03:01:38.647Z,13.40
2018-12-03T03:02:38.629Z,13.33
2018-12-03T03:03:38.611Z,13.39
2018-12-03T03:04:38.589Z,13.37
2018-12-03T03:05:38.569Z,13.33
2018-12-03T03:06:38.550Z,13.37
2018-12-03T03:07:38.531Z,13.37
2018-12-03T03:08:38.511Z,13.31
2018-12-03T03:09:38.488Z,13.36
2018-12-03T03:10:38.467Z,13.37
2018-12-03T03:11:38.448Z,13.40
2018-12-03T03:12:38.428Z,13.39
2018-12-03T03:13:38.409Z,13.39
2018-12-03T03:14:38.387Z,13.42
2018-12-03T03:15:38.368Z,13.40
2018-12-03T03:16:38.351Z,13.39
2018-12-03T03:17:38.327Z,13.43
2018-12-03T03:18:38.310Z,13.46
2018-12-03T03:19:38.294Z,13.43
2018-12-03T03:20:38.271Z,13.40
2018-12-03T03:21:38.247Z,13.40
2018-12-03T03:22:38.229Z,13.31
2018-12-03T03:23:38.208Z,13.37
2018-12-03T03:24:38.189Z,13.39
2018-12-03T03:25:38.168Z,13.37
2018-12-03T03:26:38.150Z,13.37
2018-12-03T03:27:38.129Z,13.40
2018-12-03T03:28:38.112Z,13.42
2018-12-03T03:29:38.103Z,13.43
2018-12-03T03:30:38.078Z,13.31
2018-12-03T03:31:38.051Z,13.43
2018-12-03T03:32:38.029Z,13.42
2018-12-03T03:33:38.012Z,13.42
2018-12-03T03:34:37.989Z,13.47
2018-12-03T03:35:37.984Z,13.40
2018-12-03T03:36:37.951Z,13.40
2018-12-03T03:37:37.932Z,13.45
2018-12-03T03:38:37.917Z,13.47
2018-12-03T03:39:37.891Z,13.40
2018-12-03T03:40:37.873Z,13.40
2018-12-03T03:41:37.853Z,13.46
2018-12-03T03:42:37.838Z,13.55
2018-12-03T03:43:37.827Z,13.55
2018-12-03T03:44:37.796Z,13.57
2018-12-03T03:45:37.771Z,13.49
2018-12-03T03:46:37.752Z,13.58
2018-12-03T03:47:37.730Z,13.58
2018-12-03T03:48:37.714Z,13.47
2018-12-03T03:49:37.697Z,13.55
2018-12-03T03:50:37.676Z,13.58
2018-12-03T03:51:37.648Z,13.54
2018-12-03T03:52:37.638Z,13.54
2018-12-03T03:53:37.610Z,13.55
2018-12-03T03:54:37.589Z,13.55
2018-12-03T03:55:37.649Z,13.52
2018-12-03T03:56:37.549Z,13.52
2018-12-03T03:57:37.530Z,13.54
2018-12-03T03:58:37.513Z,13.57
2018-12-03T03:59:37.492Z,13.54
2018-12-03T04:00:37.469Z,13.52
2018-12-03T04:01:37.451Z,13.52
2018-12-03T04:02:37.431Z,13.54
2018-12-03T04:03:37.414Z,13.57
2018-12-03T04:04:37.391Z,13.42
2018-12-03T04:05:37.373Z,13.45
2018-12-03T04:06:37.353Z,13.45
2018-12-03T04:07:37.331Z,13.39
2018-12-03T04:08:37.310Z,13.46
2018-12-03T04:09:37.290Z,13.46
2018-12-03T04:10:37.282Z,13.46
2018-12-03T04:11:37.250Z,13.49
2018-12-03T04:12:37.235Z,13.46
2018-12-03T04:13:37.214Z,13.37
2018-12-03T04:14:37.195Z,13.39
2018-12-03T04:15:37.176Z,13.43
2018-12-03T04:16:37.151Z,13.39
2018-12-03T04:17:37.141Z,13.33
2018-12-03T04:18:37.110Z,13.28
2018-12-03T04:19:37.107Z,13.27
2018-12-03T04:20:37.070Z,13.31
2018-12-03T04:21:37.057Z,13.30
2018-12-03T04:22:37.041Z,13.21
2018-12-03T04:23:37.011Z,13.23
2018-12-03T04:24:36.991Z,13.19
2018-12-03T04:25:36.971Z,13.16
2018-12-03T04:26:36.951Z,13.19
2018-12-03T04:27:36.930Z,13.16
2018-12-03T04:28:36.909Z,13.20
2018-12-03T04:29:36.890Z,13.21
2018-12-03T04:30:36.876Z,13.16
2018-12-03T04:31:36.853Z,13.20
2018-12-03T04:32:36.830Z,13.17
2018-12-03T04:33:36.810Z,13.13
2018-12-03T04:34:36.792Z,13.13
2018-12-03T04:35:36.771Z,13.16
2018-12-03T04:36:36.748Z,13.17
2018-12-03T04:37:36.731Z,13.05
2018-12-03T04:38:36.711Z,13.06
2018-12-03T04:39:36.689Z,13.11
2018-12-03T04:40:36.668Z,13.03
2018-12-03T04:41:36.653Z,13.09
2018-12-03T04:42:36.631Z,13.08
2018-12-03T04:43:36.611Z,13.08
2018-12-03T04:44:36.590Z,13.06
2018-12-03T04:45:36.575Z,13.02
2018-12-03T04:46:36.551Z,13.05
2018-12-03T04:47:36.529Z,13.06
2018-12-03T04:48:36.507Z,13.11
2018-12-03T04:49:36.490Z,13.05
2018-12-03T04:50:36.467Z,13.08
2018-12-03T04:51:36.449Z,13.05
2018-12-03T04:52:36.427Z,13.03
2018-12-03T04:53:36.410Z,12.98
2018-12-03T04:54:36.390Z,12.98
2018-12-03T04:55:36.367Z,12.99
2018-12-03T04:56:36.351Z,12.98
2018-12-03T04:57:36.327Z,13.01
2018-12-03T04:58:36.308Z,13.01
2018-12-03T04:59:36.286Z,12.95
2018-12-03T05:00:36.265Z,12.99
2018-12-03T05:01:36.247Z,13.01
2018-12-03T05:02:36.225Z,12.95
2018-12-03T05:03:36.208Z,12.98
2018-12-03T05:04:36.188Z,13.02
2018-12-03T05:05:36.165Z,12.95
2018-12-03T05:06:36.147Z,12.93
2018-12-03T05:07:36.130Z,12.98
2018-12-03T05:08:36.106Z,13.01
2018-12-03T05:09:36.084Z,12.94
2018-12-03T05:10:36.067Z,13.01
2018-12-03T05:11:36.044Z,12.86
2018-12-03T05:12:36.024Z,12.87
2018-12-03T05:13:36.006Z,13.03
2018-12-03T05:14:35.984Z,12.95
2018-12-03T05:15:35.964Z,12.98
2018-12-03T05:16:35.950Z,12.91
2018-12-03T05:17:35.924Z,13.09
2018-12-03T05:18:35.902Z,13.08
2018-12-03T05:19:35.883Z,13.06
2018-12-03T05:20:35.863Z,13.06
2018-12-03T05:21:35.843Z,13.11
2018-12-03T05:22:35.822Z,13.02
2018-12-03T05:23:35.801Z,13.02
2018-12-03T05:24:35.781Z,13.13
2018-12-03T05:25:35.761Z,13.05
2018-12-03T05:26:35.747Z,13.09
2018-12-03T05:27:35.724Z,13.17
2018-12-03T05:28:35.699Z,13.06
2018-12-03T05:29:35.685Z,13.17
2018-12-03T05:30:35.663Z,13.13
2018-12-03T05:31:35.640Z,13.19
2018-12-03T05:32:35.619Z,13.26
2018-12-03T05:33:35.599Z,13.28
2018-12-03T05:34:35.579Z,13.17
2018-12-03T05:35:35.559Z,13.24
2018-12-03T05:36:35.538Z,13.23
2018-12-03T05:37:35.517Z,13.20
2018-12-03T05:38:35.499Z,13.19
2018-12-03T05:39:35.482Z,13.19
2018-12-03T05:40:35.458Z,13.17
2018-12-03T05:41:35.438Z,13.28
2018-12-03T05:42:35.422Z,13.17
2018-12-03T05:43:35.399Z,13.21
2018-12-03T05:44:35.377Z,13.12
2018-12-03T05:45:35.359Z,13.17
2018-12-03T05:46:35.337Z,13.13
2018-12-03T05:47:35.318Z,13.16
2018-12-03T05:48:35.296Z,13.16
2018-12-03T05:49:35.275Z,13.16
2018-12-03T05:50:35.257Z,13.16
2018-12-03T05:51:35.236Z,13.16
2018-12-03T05:52:35.214Z,13.17
2018-12-03T05:53:35.198Z,13.12
2018-12-03T05:54:35.176Z,13.27
2018-12-03T05:55:35.156Z,13.16
2018-12-03T05:56:35.135Z,13.17
2018-12-03T05:57:35.116Z,13.20
2018-12-03T05:58:35.096Z,13.13
2018-12-03T05:59:35.078Z,13.11
2018-12-03T06:00:35.054Z,13.20
2018-12-03T06:01:35.035Z,13.17
2018-12-03T06:02:35.017Z,13.12
2018-12-03T06:03:34.995Z,13.20
2018-12-03T06:04:34.975Z,13.21
2018-12-03T06:05:34.955Z,13.12
2018-12-03T06:06:34.935Z,13.17
2018-12-03T06:07:34.914Z,13.19
2018-12-03T06:08:34.901Z,13.16
2018-12-03T06:09:34.874Z,13.13
2018-12-03T06:10:34.857Z,13.02
2018-12-03T06:11:34.841Z,13.06
2018-12-03T06:12:34.821Z,13.06
2018-12-03T06:13:34.794Z,13.08
2018-12-03T06:14:34.777Z,13.05
2018-12-03T06:15:34.755Z,12.94
2018-12-03T06:16:34.733Z,12.99
2018-12-03T06:17:34.715Z,12.99
2018-12-03T06:18:34.694Z,12.94
2018-12-03T06:19:34.676Z,12.90
2018-12-03T06:20:34.654Z,12.88
2018-12-03T06:21:34.632Z,12.80
2018-12-03T06:22:34.614Z,12.83
2018-12-03T06:23:34.592Z,12.73
2018-12-03T06:24:34.572Z,12.70
2018-12-03T06:25:34.552Z,12.68
2018-12-03T06:26:34.531Z,12.68
2018-12-03T06:27:34.543Z,12.66
2018-12-03T06:28:34.490Z,12.69
2018-12-03T06:29:34.471Z,12.63
2018-12-03T06:30:34.455Z,12.66
2018-12-03T06:31:34.431Z,12.65
2018-12-03T06:32:34.409Z,12.69
2018-12-03T06:33:34.390Z,12.66
2018-12-03T06:34:34.369Z,12.69
2018-12-03T06:35:34.349Z,12.66
2018-12-03T06:36:34.334Z,12.63
2018-12-03T06:37:34.310Z,12.70
2018-12-03T06:38:34.289Z,12.70
2018-12-03T06:39:34.271Z,12.70
2018-12-03T06:40:34.248Z,12.66
2018-12-03T06:41:34.227Z,12.69
2018-12-03T06:42:34.206Z,12.62
2018-12-03T06:43:34.186Z,12.61
2018-12-03T06:44:34.165Z,12.63
2018-12-03T06:45:34.144Z,12.66
2018-12-03T06:46:34.132Z,12.63
2018-12-03T06:47:34.104Z,12.58
2018-12-03T06:48:34.082Z,12.63
2018-12-03T06:49:34.068Z,12.53
2018-12-03T06:50:34.045Z,12.62
2018-12-03T06:51:34.048Z,12.58
2018-12-03T06:52:34.001Z,12.61
2018-12-03T06:53:33.980Z,12.58
2018-12-03T06:54:33.961Z,12.57
2018-12-03T06:55:33.943Z,12.66
2018-12-03T06:56:33.920Z,12.58
2018-12-03T06:57:33.898Z,12.62
2018-12-03T06:58:33.878Z,12.69
2018-12-03T06:59:33.858Z,12.70
2018-12-03T07:00:33.836Z,12.66
2018-12-03T07:01:33.818Z,12.70
2018-12-03T07:02:33.797Z,12.70
2018-12-03T07:03:33.777Z,12.65
2018-12-03T07:04:33.757Z,12.76
2018-12-03T07:05:33.736Z,12.70
2018-12-03T07:06:33.715Z,12.73
2018-12-03T07:07:33.695Z,12.84
2018-12-03T07:08:33.673Z,12.78
2018-12-03T07:09:33.655Z,12.83
2018-12-03T07:10:33.633Z,12.80
2018-12-03T07:11:33.614Z,12.75
2018-12-03T07:12:33.630Z,12.86
2018-12-03T07:13:33.572Z,12.83
2018-12-03T07:14:33.554Z,12.90
2018-12-03T07:15:33.532Z,12.86
2018-12-03T07:16:33.511Z,12.90
2018-12-03T07:17:33.493Z,12.83
2018-12-03T07:18:33.472Z,12.87
2018-12-03T07:19:33.449Z,12.86
2018-12-03T07:20:33.430Z,12.86
2018-12-03T07:21:33.409Z,12.83
2018-12-03T07:22:33.390Z,12.84
2018-12-03T07:23:33.369Z,12.84
2018-12-03T07:24:33.350Z,12.84
2018-12-03T07:25:33.328Z,12.76
2018-12-03T07:26:33.313Z,12.80
2018-12-03T07:27:33.289Z,12.83
2018-12-03T07:28:33.267Z,12.76
2018-12-03T07:29:33.247Z,12.76
2018-12-03T07:30:33.226Z,12.69
2018-12-03T07:31:33.206Z,12.63
2018-12-03T07:32:33.186Z,12.68
2018-12-03T07:33:33.165Z,12.63
2018-12-03T07:34:33.143Z,12.72
2018-12-03T07:35:33.122Z,12.68
2018-12-03T07:36:33.103Z,12.63
2018-12-03T07:37:33.087Z,12.66
2018-12-03T07:38:33.696Z,12.61
2018-12-03T07:39:33.042Z,12.63
2018-12-03T07:40:33.019Z,12.61
2018-12-03T07:41:33.001Z,12.61
2018-12-03T07:42:32.980Z,12.61
2018-12-03T07:43:32.959Z,12.61
2018-12-03T07:44:32.939Z,12.75
2018-12-03T07:45:32.924Z,12.63
2018-12-03T07:46:32.897Z,12.68
2018-12-03T07:47:32.878Z,12.66
2018-12-03T07:48:32.856Z,12.63
2018-12-03T07:49:32.836Z,12.68
2018-12-03T07:50:32.846Z,12.72
2018-12-03T07:51:32.795Z,12.69
2018-12-03T07:52:32.774Z,12.68
2018-12-03T07:53:32.756Z,12.68
2018-12-03T07:54:32.734Z,12.66
2018-12-03T07:55:32.713Z,12.58
2018-12-03T07:56:32.697Z,12.61
2018-12-03T07:57:32.671Z,12.53
2018-12-03T07:58:32.651Z,12.62
2018-12-03T07:59:32.634Z,12.58
2018-12-03T08:00:32.611Z,12.51
2018-12-03T08:01:32.589Z,12.53
2018-12-03T08:02:32.567Z,12.61
2018-12-03T08:03:32.549Z,12.61
2018-12-03T08:04:32.526Z,12.58
2018-12-03T08:05:32.509Z,12.61
2018-12-03T08:06:32.486Z,12.63
2018-12-03T08:07:32.465Z,12.61
2018-12-03T08:08:32.444Z,12.58
2018-12-03T08:09:32.423Z,12.63
2018-12-03T08:10:32.403Z,12.68
2018-12-03T08:11:32.388Z,12.72
2018-12-03T08:12:32.366Z,12.80
2018-12-03T08:13:32.341Z,12.87
2018-12-03T08:14:32.324Z,12.81
2018-12-03T08:15:32.302Z,12.73
2018-12-03T08:16:32.280Z,12.73
2018-12-03T08:17:32.265Z,12.70
2018-12-03T08:18:32.241Z,12.73
2018-12-03T08:19:32.219Z,12.73
2018-12-03T08:20:32.199Z,12.75
2018-12-03T08:21:32.179Z,12.69
2018-12-03T08:22:32.157Z,12.73
2018-12-03T08:23:32.137Z,12.69
2018-12-03T08:24:32.116Z,12.69
2018-12-03T08:25:32.097Z,12.63
2018-12-03T08:26:32.077Z,12.66
2018-12-03T08:27:32.058Z,12.63
2018-12-03T08:28:32.036Z,12.66
2018-12-03T08:29:32.013Z,12.75
2018-12-03T08:30:31.995Z,12.66
2018-12-03T08:31:31.974Z,12.68
2018-12-03T08:32:31.955Z,12.73
2018-12-03T08:33:31.935Z,12.83
2018-12-03T08:34:31.912Z,12.83
2018-12-03T08:35:31.893Z,12.87
2018-12-03T08:36:31.871Z,12.69
2018-12-03T08:37:31.856Z,12.76
2018-12-03T08:38:31.832Z,12.72
2018-12-03T08:39:31.813Z,12.68
2018-12-03T08:40:31.790Z,12.70
2018-12-03T08:41:31.770Z,12.68
2018-12-03T08:42:31.750Z,12.69
2018-12-03T08:43:31.730Z,12.68
2018-12-03T08:44:31.718Z,12.66
2018-12-03T08:45:31.689Z,12.63
2018-12-03T08:46:31.670Z,12.63
2018-12-03T08:47:31.647Z,12.68
2018-12-03T08:48:31.627Z,12.66
2018-12-03T08:49:31.614Z,12.66
2018-12-03T08:50:31.590Z,12.69
2018-12-03T08:51:31.568Z,12.69
2018-12-03T08:52:31.544Z,12.68
2018-12-03T08:53:31.524Z,12.66
2018-12-03T08:54:31.510Z,12.66
2018-12-03T08:55:31.485Z,12.66
2018-12-03T08:56:31.470Z,12.69
2018-12-03T08:57:31.444Z,12.62
2018-12-03T08:58:31.423Z,12.58
2018-12-03T08:59:31.401Z,12.66
2018-12-03T09:00:31.380Z,12.68
2018-12-03T09:01:31.361Z,12.68
2018-12-03T09:02:31.345Z,12.73
2018-12-03T09:03:31.322Z,12.73
2018-12-03T09:04:31.302Z,12.75
2018-12-03T09:05:31.278Z,12.75
2018-12-03T09:06:31.258Z,12.80
2018-12-03T09:07:31.241Z,12.72
2018-12-03T09:08:31.216Z,12.78
2018-12-03T09:09:31.211Z,12.87
2018-12-03T09:10:31.179Z,12.81
2018-12-03T09:11:31.156Z,12.81
2018-12-03T09:12:31.134Z,12.73
2018-12-03T09:13:31.116Z,12.78
2018-12-03T09:14:31.094Z,12.73
2018-12-03T09:15:31.075Z,12.80
2018-12-03T09:16:31.053Z,12.76
2018-12-03T09:17:31.034Z,12.75
2018-12-03T09:18:31.019Z,12.72
2018-12-03T09:19:30.991Z,12.70
2018-12-03T09:20:30.972Z,12.76
2018-12-03T09:21:30.953Z,12.69
2018-12-03T09:22:30.931Z,12.76
2018-12-03T09:23:30.912Z,12.73
2018-12-03T09:24:30.890Z,12.76
2018-12-03T09:25:30.871Z,12.73
2018-12-03T09:26:30.850Z,12.75
2018-12-03T09:27:30.833Z,12.83
2018-12-03T09:28:30.810Z,12.80
2018-12-03T09:29:30.788Z,12.86
2018-12-03T09:30:30.768Z,12.84
2018-12-03T09:31:30.749Z,12.83
2018-12-03T09:32:30.727Z,12.86
2018-12-03T09:33:30.717Z,12.83
2018-12-03T09:34:30.687Z,12.84
2018-12-03T09:35:30.667Z,12.88
2018-12-03T09:36:30.646Z,12.86
2018-12-03T09:37:30.626Z,12.87
2018-12-03T09:38:30.606Z,12.83
2018-12-03T09:39:30.587Z,12.88
2018-12-03T09:40:30.567Z,12.88
2018-12-03T09:41:30.545Z,12.91
2018-12-03T09:42:30.527Z,12.90
2018-12-03T09:43:30.504Z,12.90
2018-12-03T09:44:30.485Z,12.91
2018-12-03T09:45:30.465Z,12.93
2018-12-03T09:46:30.446Z,12.90
2018-12-03T09:47:30.815Z,12.95
2018-12-03T09:48:30.403Z,13.02
2018-12-03T09:49:30.383Z,12.88
2018-12-03T09:50:30.366Z,12.86
2018-12-03T09:51:30.344Z,12.90
2018-12-03T09:52:30.322Z,12.86
2018-12-03T09:53:30.302Z,12.90
2018-12-03T09:54:30.282Z,13.03
2018-12-03T09:55:30.263Z,12.95
2018-12-03T09:56:30.241Z,12.99
2018-12-03T09:57:30.224Z,12.95
2018-12-03T09:58:30.205Z,13.03
2018-12-03T09:59:30.182Z,13.03
2018-12-03T10:00:30.163Z,13.06
2018-12-03T10:01:30.143Z,13.08
2018-12-03T10:02:30.122Z,13.02
2018-12-03T10:03:30.104Z,13.06
2018-12-03T10:04:30.082Z,13.16
2018-12-03T10:05:30.060Z,13.16
2018-12-03T10:06:30.043Z,13.16
2018-12-03T10:07:30.022Z,13.24
2018-12-03T10:08:30.000Z,13.24
2018-12-03T10:09:29.987Z,13.17
2018-12-03T10:10:29.959Z,13.23
2018-12-03T10:11:29.940Z,13.30
2018-12-03T10:12:29.919Z,13.30
2018-12-03T10:13:29.898Z,13.31
2018-12-03T10:14:29.880Z,13.36
2018-12-03T10:15:29.858Z,13.36
2018-12-03T10:16:29.838Z,13.30
2018-12-03T10:17:29.818Z,13.33
2018-12-03T10:18:29.801Z,13.31
2018-12-03T10:19:29.783Z,13.31
2018-12-03T10:20:29.757Z,13.21
2018-12-03T10:21:29.738Z,13.24
2018-12-03T10:22:29.718Z,13.31
2018-12-03T10:23:29.699Z,13.33
2018-12-03T10:24:29.678Z,13.17
2018-12-03T10:25:29.666Z,13.26
2018-12-03T10:26:29.670Z,13.19
2018-12-03T10:27:29.617Z,13.21
2018-12-03T10:28:29.597Z,13.28
2018-12-03T10:29:29.582Z,13.23
2018-12-03T10:30:29.557Z,13.27
2018-12-03T10:31:29.537Z,13.27
2018-12-03T10:32:29.517Z,13.33
2018-12-03T10:33:29.496Z,13.30
2018-12-03T10:34:29.483Z,13.39
2018-12-03T10:35:29.460Z,13.39
2018-12-03T10:36:29.436Z,13.45
2018-12-03T10:37:29.415Z,13.42
2018-12-03T10:38:29.396Z,13.45
2018-12-03T10:39:29.378Z,13.43
2018-12-03T10:40:29.356Z,13.52
2018-12-03T10:41:29.336Z,13.47
2018-12-03T10:42:29.316Z,13.52
2018-12-03T10:43:29.299Z,13.49
2018-12-03T10:44:29.278Z,13.57
2018-12-03T10:45:29.257Z,13.55
2018-12-03T10:46:29.239Z,13.50
2018-12-03T10:47:29.217Z,13.46
2018-12-03T10:48:29.196Z,13.45
2018-12-03T10:49:29.180Z,13.30
2018-12-03T10:50:29.157Z,13.37
2018-12-03T10:51:29.141Z,13.37
2018-12-03T10:52:29.118Z,13.37
2018-12-03T10:53:29.101Z,13.36
2018-12-03T10:54:29.092Z,13.36
2018-12-03T10:55:29.058Z,13.36
2018-12-03T10:56:29.037Z,13.37
2018-12-03T10:57:29.017Z,13.37
2018-12-03T10:58:29.001Z,13.42
2018-12-03T10:59:28.979Z,13.37
2018-12-03T11:00:28.960Z,13.45
2018-12-03T11:01:28.938Z,13.39
2018-12-03T11:02:28.919Z,13.46
2018-12-03T11:03:28.923Z,13.43
2018-12-03T11:04:28.877Z,13.43
2018-12-03T11:05:28.861Z,13.46
2018-12-03T11:06:28.839Z,13.39
2018-12-03T11:07:28.820Z,13.58
2018-12-03T11:08:29.245Z,13.54
2018-12-03T11:09:33.164Z,13.50
2018-12-03T11:10:28.759Z,13.49
2018-12-03T11:11:28.747Z,13.47
2018-12-03T11:12:28.722Z,13.43
2018-12-03T11:13:28.700Z,13.40
2018-12-03T11:14:28.684Z,13.31
2018-12-03T11:15:28.661Z,13.54
2018-12-03T11:16:28.640Z,13.55
2018-12-03T11:17:28.620Z,13.60
2018-12-03T11:18:28.600Z,13.52
2018-12-03T11:19:28.582Z,13.57
2018-12-03T11:20:28.560Z,13.58
2018-12-03T11:21:28.543Z,13.57
2018-12-03T11:22:28.520Z,13.54
2018-12-03T11:23:34.343Z,13.58
2018-12-03T11:24:28.481Z,13.54
2018-12-03T11:25:28.461Z,13.54
2018-12-03T11:26:28.441Z,13.47
2018-12-03T11:27:28.422Z,13.55
2018-12-03T11:28:28.401Z,13.57
2018-12-03T11:29:28.381Z,13.57
2018-12-03T11:30:28.361Z,13.55
2018-12-03T11:31:28.345Z,13.57
2018-12-03T11:32:28.324Z,13.55
2018-12-03T11:33:28.304Z,13.55
2018-12-03T11:34:28.283Z,13.54
2018-12-03T11:35:28.262Z,13.50
2018-12-03T11:36:28.242Z,13.52
2018-12-03T11:37:28.223Z,13.50
2018-12-03T11:38:28.203Z,13.54
2018-12-03T11:39:28.183Z,13.57
2018-12-03T11:40:28.164Z,13.61
2018-12-03T11:41:28.144Z,13.60
2018-12-03T11:42:28.124Z,13.64
2018-12-03T11:43:28.107Z,13.82
2018-12-03T11:44:28.089Z,13.78
2018-12-03T11:45:28.064Z,13.79
2018-12-03T11:46:28.048Z,13.82
2018-12-03T11:47:28.036Z,13.79
2018-12-03T11:48:28.007Z,13.75
2018-12-03T11:49:27.986Z,13.71
2018-12-03T11:50:27.993Z,13.65
2018-12-03T11:51:27.946Z,13.70
2018-12-03T11:52:27.927Z,13.73
2018-12-03T11:53:27.906Z,13.64
2018-12-03T11:54:27.891Z,13.71
2018-12-03T11:55:27.870Z,13.61
2018-12-03T11:56:27.847Z,13.70
2018-12-03T11:57:27.829Z,13.61
2018-12-03T11:58:27.809Z,13.67
2018-12-03T11:59:27.791Z,13.75
2018-12-03T12:00:27.770Z,13.68
2018-12-03T12:01:27.750Z,13.73
2018-12-03T12:02:27.730Z,13.64
2018-12-03T12:03:27.712Z,13.64
2018-12-03T12:04:27.691Z,13.76
2018-12-03T12:05:27.673Z,13.67
2018-12-03T12:06:27.652Z,13.64
2018-12-03T12:07:27.633Z,13.68
2018-12-03T12:08:27.616Z,13.67
2018-12-03T12:09:27.593Z,13.67
2018-12-03T12:10:27.577Z,13.61
2018-12-03T12:11:27.553Z,13.55
2018-12-03T12:12:27.535Z,13.67
2018-12-03T12:13:27.517Z,13.67
2018-12-03T12:14:27.500Z,13.58
2018-12-03T12:15:27.479Z,13.61
2018-12-03T12:16:27.454Z,13.62
2018-12-03T12:17:27.438Z,13.58
2018-12-03T12:18:27.416Z,13.52
2018-12-03T12:19:27.396Z,13.61
2018-12-03T12:20:27.376Z,13.58
2018-12-03T12:21:27.360Z,13.62
2018-12-03T12:22:27.337Z,13.64
2018-12-03T12:23:27.316Z,13.62
2018-12-03T12:24:27.295Z,13.60
2018-12-03T12:25:27.276Z,13.65
2018-12-03T12:26:27.258Z,13.78
2018-12-03T12:27:27.238Z,13.70
2018-12-03T12:28:27.216Z,13.71
2018-12-03T12:29:27.197Z,13.78
2018-12-03T12:30:27.178Z,13.87
2018-12-03T12:31:27.158Z,13.83
2018-12-03T12:32:27.137Z,13.78
2018-12-03T12:33:27.150Z,13.85
2018-12-03T12:34:27.103Z,13.73
2018-12-03T12:35:27.080Z,13.73
2018-12-03T12:36:27.062Z,13.76
2018-12-03T12:37:27.039Z,13.79
2018-12-03T12:38:27.020Z,13.73
2018-12-03T12:39:27.005Z,13.70
2018-12-03T12:40:26.982Z,13.68
2018-12-03T12:41:26.962Z,13.70
2018-12-03T12:42:31.620Z,13.76
2018-12-03T12:43:26.948Z,13.73
2018-12-03T12:44:26.904Z,13.64
2018-12-03T12:45:26.882Z,13.64
2018-12-03T12:46:26.865Z,13.67
2018-12-03T12:47:26.847Z,13.62
2018-12-03T12:48:26.823Z,13.54
2018-12-03T12:49:26.806Z,13.58
2018-12-03T12:50:26.786Z,13.62
2018-12-03T12:51:26.764Z,13.57
2018-12-03T12:52:26.748Z,13.57